Time;durP1;ratioP1;P1;durP2;ratioP2;P2;SDS_P1;SDS_P2;PMS_P1;PMS_P2;Temp;Humidity;BMP_temperature;BMP_pressure;BME280_temperature;BME280_humidity;BME280_pressure;Samples;Min_cycle;Max_cycle;Signal;HPM_P1;HPM_P2
2023/08/23 00:01:05;;;;;;;;;;;24.10;53.70;;;;;;5104624;28;19997;-59
2023/08/23 00:03:32;;;;;;;;;;;24.10;53.70;;;;;;5104295;27;19924;-58
2023/08/23 00:05:59;;;;;;;;;;;24.10;53.80;;;;;;5121356;27;19931;-58
2023/08/23 00:08:26;;;;;;;;;;;24.10;53.90;;;;;;5104173;28;19928;-58
2023/08/23 00:10:55;;;;;;;;;;;24.10;54.00;;;;;;5125511;27;19938;-58
2023/08/23 00:13:22;;;;;;;;;;;24.10;54.10;;;;;;5096522;28;19984;-58
2023/08/23 00:15:48;;;;;;;;;;;24.10;54.10;;;;;;5104320;28;19924;-58
2023/08/23 00:18:16;;;;;;;;;;;24.10;54.10;;;;;;5101902;27;19976;-58
2023/08/23 00:20:42;;;;;;;;;;;24.10;54.20;;;;;;5105613;27;20014;-58
2023/08/23 00:23:09;;;;;;;;;;;24.10;54.30;;;;;;5111027;28;19931;-59
2023/08/23 00:25:36;;;;;;;;;;;24.10;54.30;;;;;;5097318;27;19935;-59
2023/08/23 00:28:04;;;;;;;;;;;24.10;54.40;;;;;;5102546;27;19927;-59
2023/08/23 00:30:31;;;;;;;;;;;24.10;54.50;;;;;;5107667;27;19924;-58
2023/08/23 00:32:58;;;;;;;;;;;24.10;54.50;;;;;;5112426;28;19924;-58
2023/08/23 00:35:25;;;;;;;;;;;24.10;54.60;;;;;;5111723;27;20046;-59
2023/08/23 00:37:52;;;;;;;;;;;24.10;54.70;;;;;;5121641;27;19928;-59
2023/08/23 00:40:19;;;;;;;;;;;24.10;54.70;;;;;;5130603;27;19930;-59
2023/08/23 00:42:46;;;;;;;;;;;24.20;54.80;;;;;;5105494;27;19980;-59
2023/08/23 00:45:14;;;;;;;;;;;24.10;54.80;;;;;;5103932;28;19930;-58
2023/08/23 00:47:40;;;;;;;;;;;24.10;54.90;;;;;;5100161;28;19924;-58
2023/08/23 00:50:08;;;;;;;;;;;24.10;54.90;;;;;;5129360;27;19984;-58
2023/08/23 00:52:35;;;;;;;;;;;24.10;55.00;;;;;;5126940;27;20316;-58
2023/08/23 00:55:02;;;;;;;;;;;24.20;55.10;;;;;;5103864;28;19924;-58
2023/08/23 00:57:28;;;;;;;;;;;24.20;55.10;;;;;;5113706;27;19931;-59
2023/08/23 00:59:55;;;;;;;;;;;24.20;55.20;;;;;;5106529;27;19972;-58
2023/08/23 01:02:23;;;;;;;;;;;24.20;55.20;;;;;;5107049;27;19931;-58
2023/08/23 01:04:50;;;;;;;;;;;24.10;55.20;;;;;;5106601;27;20270;-59
2023/08/23 01:07:17;;;;;;;;;;;24.10;55.20;;;;;;5105939;28;19927;-58
2023/08/23 01:09:46;;;;;;;;;;;24.20;55.30;;;;;;5122703;27;20167;-59
2023/08/23 01:12:14;;;;;;;;;;;24.10;55.30;;;;;;5105068;28;19928;-58
2023/08/23 01:14:43;;;;;;;;;;;24.10;55.30;;;;;;5122129;27;20291;-58
2023/08/23 01:17:10;;;;;;;;;;;24.10;55.40;;;;;;5108381;27;19992;-59
2023/08/23 01:19:42;;;;;;;;;;;24.10;55.40;;;;;;5124443;27;20270;-59
2023/08/23 01:22:09;;;;;;;;;;;24.10;55.40;;;;;;5126042;27;19931;-58
2023/08/23 01:24:37;;;;;;;;;;;24.10;55.50;;;;;;5106460;27;19927;-58
2023/08/23 01:27:04;;;;;;;;;;;24.20;55.50;;;;;;5102011;28;19976;-58
2023/08/23 01:29:31;;;;;;;;;;;24.10;55.50;;;;;;5102177;27;19973;-58
2023/08/23 01:31:58;;;;;;;;;;;24.10;55.60;;;;;;5124437;27;19934;-58
2023/08/23 01:34:26;;;;;;;;;;;24.10;55.60;;;;;;5124649;27;19924;-59
2023/08/23 01:36:52;;;;;;;;;;;24.10;55.70;;;;;;5106803;27;20000;-59
2023/08/23 01:39:19;;;;;;;;;;;24.10;55.70;;;;;;5106668;27;19930;-58
2023/08/23 01:41:47;;;;;;;;;;;24.10;55.70;;;;;;5103612;27;19928;-58
2023/08/23 01:44:14;;;;;;;;;;;24.10;55.80;;;;;;5102584;28;19928;-59
2023/08/23 01:46:41;;;;;;;;;;;24.10;55.80;;;;;;5110415;27;19924;-58
2023/08/23 01:49:08;;;;;;;;;;;24.10;55.80;;;;;;5107399;28;19932;-60
2023/08/23 01:51:34;;;;;;;;;;;24.10;55.80;;;;;;5098641;28;19930;-58
2023/08/23 01:54:01;;;;;;;;;;;24.10;55.90;;;;;;5110770;28;20161;-59
2023/08/23 01:56:28;;;;;;;;;;;24.10;55.90;;;;;;5128576;27;20296;-59
2023/08/23 01:58:56;;;;;;;;;;;24.10;55.90;;;;;;5115625;27;19927;-58
2023/08/23 02:01:23;;;;;;;;;;;24.10;55.90;;;;;;5101112;28;19928;-58
2023/08/23 02:03:50;;;;;;;;;;;24.10;55.90;;;;;;5101755;27;19976;-59
2023/08/23 02:06:16;;;;;;;;;;;24.10;55.90;;;;;;5101615;28;19931;-58
2023/08/23 02:08:43;;;;;;;;;;;24.10;56.00;;;;;;5110546;27;20411;-59
2023/08/23 02:11:10;;;;;;;;;;;24.10;56.10;;;;;;5100743;28;19923;-58
2023/08/23 02:13:36;;;;;;;;;;;24.10;56.00;;;;;;5111915;28;20012;-58
2023/08/23 02:16:05;;;;;;;;;;;24.10;56.00;;;;;;5114064;27;19948;-58
2023/08/23 02:18:31;;;;;;;;;;;24.10;56.00;;;;;;5102778;28;19984;-59
2023/08/23 02:20:57;;;;;;;;;;;24.10;56.00;;;;;;5114206;27;19976;-59
2023/08/23 02:23:24;;;;;;;;;;;24.10;56.10;;;;;;5124191;27;19927;-58
2023/08/23 02:25:51;;;;;;;;;;;24.10;56.10;;;;;;5123800;28;19973;-59
2023/08/23 02:28:17;;;;;;;;;;;24.10;56.10;;;;;;5099373;28;19928;-59
2023/08/23 02:30:44;;;;;;;;;;;24.10;56.10;;;;;;5129620;28;19932;-58
2023/08/23 02:33:13;;;;;;;;;;;24.10;56.20;;;;;;5099337;28;19936;-58
2023/08/23 02:35:40;;;;;;;;;;;24.10;56.10;;;;;;5128863;28;19930;-58
2023/08/23 02:38:08;;;;;;;;;;;24.10;56.10;;;;;;5095888;28;20335;-58
2023/08/23 02:40:35;;;;;;;;;;;24.10;56.20;;;;;;5101776;28;20015;-58
2023/08/23 02:43:01;;;;;;;;;;;24.10;56.20;;;;;;5121258;28;19931;-58
2023/08/23 02:45:28;;;;;;;;;;;24.10;56.30;;;;;;5109506;28;19931;-58
2023/08/23 02:47:55;;;;;;;;;;;24.10;56.30;;;;;;5098836;28;19980;-58
2023/08/23 02:50:23;;;;;;;;;;;24.10;56.40;;;;;;5131066;27;20066;-59
2023/08/23 02:52:50;;;;;;;;;;;24.10;56.40;;;;;;5120253;28;19924;-59
2023/08/23 02:55:16;;;;;;;;;;;24.10;56.40;;;;;;5099862;28;19924;-59
2023/08/23 02:57:43;;;;;;;;;;;24.10;56.50;;;;;;5100462;28;19927;-59
2023/08/23 03:00:11;;;;;;;;;;;24.10;56.50;;;;;;5105072;28;20536;-59
2023/08/23 03:02:37;;;;;;;;;;;24.10;56.50;;;;;;5102570;28;19924;-58
2023/08/23 03:05:04;;;;;;;;;;;24.10;56.60;;;;;;5119064;28;19924;-58
2023/08/23 03:07:33;;;;;;;;;;;24.10;56.60;;;;;;5102003;28;19946;-58
2023/08/23 03:10:01;;;;;;;;;;;24.10;56.70;;;;;;5101043;28;20633;-58
2023/08/23 03:12:28;;;;;;;;;;;24.10;56.70;;;;;;5100489;28;19996;-58
2023/08/23 03:14:55;;;;;;;;;;;24.10;56.70;;;;;;5102775;28;19934;-59
2023/08/23 03:17:22;;;;;;;;;;;24.10;56.70;;;;;;5102693;28;19976;-59
2023/08/23 03:19:48;;;;;;;;;;;24.10;56.80;;;;;;5121924;28;19923;-58
2023/08/23 03:22:15;;;;;;;;;;;24.10;56.80;;;;;;5105267;27;20647;-59
2023/08/23 03:24:43;;;;;;;;;;;24.10;56.80;;;;;;5108849;27;19993;-59
2023/08/23 03:27:10;;;;;;;;;;;24.10;56.80;;;;;;5112158;28;19923;-58
2023/08/23 03:29:37;;;;;;;;;;;24.10;56.80;;;;;;5103512;27;19927;-58
2023/08/23 03:32:04;;;;;;;;;;;24.10;56.80;;;;;;5091910;27;19935;-58
2023/08/23 03:34:31;;;;;;;;;;;24.10;56.90;;;;;;5109640;28;19924;-58
2023/08/23 03:36:57;;;;;;;;;;;24.10;56.90;;;;;;5109063;27;20010;-59
2023/08/23 03:39:24;;;;;;;;;;;24.10;56.80;;;;;;5109885;28;19981;-58
2023/08/23 03:41:52;;;;;;;;;;;24.10;56.90;;;;;;5107813;27;19931;-58
2023/08/23 03:44:19;;;;;;;;;;;24.10;56.90;;;;;;5117059;27;20292;-59
2023/08/23 03:46:46;;;;;;;;;;;24.10;56.80;;;;;;5093380;27;19924;-59
2023/08/23 03:49:12;;;;;;;;;;;24.10;56.90;;;;;;5098442;28;19924;-59
2023/08/23 03:51:39;;;;;;;;;;;24.10;56.90;;;;;;5099544;27;19927;-59
2023/08/23 03:54:06;;;;;;;;;;;24.10;56.90;;;;;;5096196;28;19930;-59
2023/08/23 03:56:33;;;;;;;;;;;24.10;56.80;;;;;;5096314;28;20015;-58
2023/08/23 03:59:01;;;;;;;;;;;24.10;56.90;;;;;;5112696;28;19984;-58
2023/08/23 04:01:27;;;;;;;;;;;24.10;56.80;;;;;;5101988;28;20879;-59
2023/08/23 04:03:54;;;;;;;;;;;24.10;56.90;;;;;;5107372;27;19959;-59
2023/08/23 04:06:21;;;;;;;;;;;24.00;56.80;;;;;;5103521;28;19930;-59
2023/08/23 04:08:48;;;;;;;;;;;24.10;56.90;;;;;;5105968;27;20026;-59
2023/08/23 04:11:14;;;;;;;;;;;24.00;56.80;;;;;;5104612;28;19951;-59
2023/08/23 04:13:41;;;;;;;;;;;24.00;56.80;;;;;;5104142;28;19924;-59
2023/08/23 04:16:10;;;;;;;;;;;24.10;56.90;;;;;;5104026;28;19924;-59
2023/08/23 04:18:37;;;;;;;;;;;24.00;56.80;;;;;;5104430;27;19924;-59
2023/08/23 04:21:04;;;;;;;;;;;24.00;56.80;;;;;;5126543;27;19931;-59
2023/08/23 04:23:30;;;;;;;;;;;24.00;56.80;;;;;;5126306;27;19983;-59
2023/08/23 04:25:57;;;;;;;;;;;24.10;56.90;;;;;;5104480;28;19923;-59
2023/08/23 04:28:24;;;;;;;;;;;24.00;56.90;;;;;;5103747;27;19967;-59
2023/08/23 04:30:51;;;;;;;;;;;24.00;56.90;;;;;;5108704;27;19928;-58
2023/08/23 04:33:19;;;;;;;;;;;24.00;56.90;;;;;;5100626;28;19923;-58
2023/08/23 04:35:46;;;;;;;;;;;24.00;56.90;;;;;;5104777;28;19924;-59
2023/08/23 04:38:13;;;;;;;;;;;24.00;56.90;;;;;;5093274;27;19927;-59
2023/08/23 04:40:40;;;;;;;;;;;24.00;56.90;;;;;;5125059;27;19927;-59
2023/08/23 04:43:07;;;;;;;;;;;24.00;57.00;;;;;;5129302;27;19967;-59
2023/08/23 04:45:36;;;;;;;;;;;24.00;56.90;;;;;;5103754;27;19924;-59
2023/08/23 04:48:03;;;;;;;;;;;24.00;57.00;;;;;;5111148;28;19935;-59
2023/08/23 04:50:33;;;;;;;;;;;24.00;57.00;;;;;;5095131;28;20373;-59
2023/08/23 04:52:59;;;;;;;;;;;24.00;57.00;;;;;;5120265;27;19927;-59
2023/08/23 04:55:26;;;;;;;;;;;24.00;57.00;;;;;;5121131;27;19924;-59
2023/08/23 04:57:53;;;;;;;;;;;24.00;57.10;;;;;;5123589;27;19931;-58
2023/08/23 05:00:21;;;;;;;;;;;24.00;57.10;;;;;;5106245;28;19977;-58
2023/08/23 05:02:48;;;;;;;;;;;24.00;57.20;;;;;;5104840;27;19969;-59
2023/08/23 05:05:14;;;;;;;;;;;24.00;57.20;;;;;;5102708;28;19924;-58
2023/08/23 05:07:42;;;;;;;;;;;24.00;57.20;;;;;;5122055;27;19953;-59
2023/08/23 05:10:10;;;;;;;;;;;24.00;57.20;;;;;;5105645;27;19935;-59
2023/08/23 05:12:36;;;;;;;;;;;24.00;57.20;;;;;;5115949;27;19928;-59
2023/08/23 05:15:04;;;;;;;;;;;24.00;57.20;;;;;;5117101;27;19927;-58
2023/08/23 05:17:30;;;;;;;;;;;24.00;57.20;;;;;;5116148;27;19928;-58
2023/08/23 05:19:57;;;;;;;;;;;24.00;57.20;;;;;;5102099;28;19946;-58
2023/08/23 05:22:24;;;;;;;;;;;24.00;57.30;;;;;;5097067;28;19927;-58
2023/08/23 05:24:52;;;;;;;;;;;24.00;57.30;;;;;;5105540;27;20357;-58
2023/08/23 05:27:19;;;;;;;;;;;24.00;57.30;;;;;;5096149;28;20017;-58
2023/08/23 05:29:45;;;;;;;;;;;24.00;57.30;;;;;;5126133;27;19923;-58
2023/08/23 05:32:12;;;;;;;;;;;24.00;57.30;;;;;;5093342;28;19928;-58
2023/08/23 05:34:40;;;;;;;;;;;24.00;57.30;;;;;;5095364;28;19927;-58
2023/08/23 05:37:06;;;;;;;;;;;24.00;57.30;;;;;;5116373;27;20433;-58
2023/08/23 05:39:33;;;;;;;;;;;24.00;57.30;;;;;;5091630;28;19924;-58
2023/08/23 05:42:01;;;;;;;;;;;24.00;57.30;;;;;;5113051;27;19996;-58
2023/08/23 05:44:28;;;;;;;;;;;24.00;57.30;;;;;;5078686;28;20010;-58
2023/08/23 05:46:55;;;;;;;;;;;24.00;57.30;;;;;;5091964;28;19977;-58
2023/08/23 05:49:21;;;;;;;;;;;24.00;57.30;;;;;;5093097;28;19927;-58
2023/08/23 05:51:50;;;;;;;;;;;24.00;57.30;;;;;;5091668;27;20643;-58
2023/08/23 05:54:16;;;;;;;;;;;24.00;57.40;;;;;;5118464;27;19923;-58
2023/08/23 05:56:43;;;;;;;;;;;24.00;57.40;;;;;;5092694;28;19949;-58
2023/08/23 05:59:11;;;;;;;;;;;24.00;57.40;;;;;;5101646;27;19930;-58
2023/08/23 06:01:38;;;;;;;;;;;24.00;57.40;;;;;;5112014;27;19969;-58
2023/08/23 06:04:05;;;;;;;;;;;24.00;57.40;;;;;;5097308;28;19973;-58
2023/08/23 06:06:33;;;;;;;;;;;24.00;57.40;;;;;;5095539;28;19923;-57
2023/08/23 06:09:00;;;;;;;;;;;24.00;57.50;;;;;;5093231;28;19965;-58
2023/08/23 06:11:27;;;;;;;;;;;24.00;57.50;;;;;;5095560;28;19992;-58
2023/08/23 06:13:55;;;;;;;;;;;24.00;57.50;;;;;;5094892;28;19969;-58
2023/08/23 06:16:24;;;;;;;;;;;24.00;57.50;;;;;;5094254;28;19924;-58
2023/08/23 06:18:50;;;;;;;;;;;24.00;57.50;;;;;;5098609;27;20364;-58
2023/08/23 06:21:17;;;;;;;;;;;24.00;57.50;;;;;;5103916;28;19927;-59
2023/08/23 06:23:44;;;;;;;;;;;24.00;57.50;;;;;;5101019;28;19924;-59
2023/08/23 06:26:11;;;;;;;;;;;24.00;57.60;;;;;;5107356;28;19992;-59
2023/08/23 06:28:38;;;;;;;;;;;24.00;57.60;;;;;;5094236;28;19959;-59
2023/08/23 06:31:05;;;;;;;;;;;24.00;57.60;;;;;;5095968;28;19923;-59
2023/08/23 06:33:33;;;;;;;;;;;24.00;57.60;;;;;;5097893;28;19936;-61
2023/08/23 06:35:59;;;;;;;;;;;24.00;57.60;;;;;;5097505;28;19928;-61
2023/08/23 06:38:26;;;;;;;;;;;24.00;57.80;;;;;;5124111;28;20381;-61
2023/08/23 06:40:53;;;;;;;;;;;24.00;58.20;;;;;;5118029;28;20024;-61
2023/08/23 06:43:20;;;;;;;;;;;24.00;58.20;;;;;;5108255;28;19923;-61
2023/08/23 06:45:46;;;;;;;;;;;23.90;58.20;;;;;;5113483;28;19946;-62
2023/08/23 06:48:13;;;;;;;;;;;23.90;58.40;;;;;;5112044;28;19955;-62
2023/08/23 06:50:41;;;;;;;;;;;23.90;58.30;;;;;;5096698;28;19989;-60
2023/08/23 06:53:08;;;;;;;;;;;23.80;58.30;;;;;;5100403;28;19928;-61
2023/08/23 06:55:39;;;;;;;;;;;23.80;58.30;;;;;;5110248;28;19923;-61
2023/08/23 06:58:05;;;;;;;;;;;23.80;58.40;;;;;;5101163;27;19930;-61
2023/08/23 07:00:32;;;;;;;;;;;23.80;58.30;;;;;;5101071;28;19928;-61
2023/08/23 07:02:59;;;;;;;;;;;23.80;58.40;;;;;;5100088;27;19946;-61
2023/08/23 07:05:26;;;;;;;;;;;23.80;58.50;;;;;;5099459;27;19929;-61
2023/08/23 07:07:54;;;;;;;;;;;23.70;58.50;;;;;;5105389;27;19924;-61
2023/08/23 07:10:21;;;;;;;;;;;23.70;58.50;;;;;;5110634;27;19931;-60
2023/08/23 07:12:48;;;;;;;;;;;23.70;58.60;;;;;;5108410;27;19924;-61
2023/08/23 07:15:15;;;;;;;;;;;23.70;58.60;;;;;;5102748;28;20139;-63
2023/08/23 07:17:41;;;;;;;;;;;23.70;58.60;;;;;;5114385;27;20030;-61
2023/08/23 07:20:09;;;;;;;;;;;23.70;58.70;;;;;;5117429;27;19924;-61
2023/08/23 07:22:36;;;;;;;;;;;23.60;58.60;;;;;;5109114;27;19955;-62
2023/08/23 07:25:05;;;;;;;;;;;23.60;58.60;;;;;;5108659;27;19935;-61
2023/08/23 07:27:32;;;;;;;;;;;23.60;58.50;;;;;;5098443;28;19932;-60
2023/08/23 07:29:59;;;;;;;;;;;23.60;58.60;;;;;;5096981;28;19928;-60
2023/08/23 07:32:30;;;;;;;;;;;23.60;58.50;;;;;;5118962;27;19924;-60
2023/08/23 07:34:57;;;;;;;;;;;23.60;58.50;;;;;;5107305;27;19924;-59
2023/08/23 07:37:23;;;;;;;;;;;23.50;58.40;;;;;;5116372;27;19968;-60
2023/08/23 07:39:50;;;;;;;;;;;23.50;58.40;;;;;;5100249;27;19924;-60
2023/08/23 07:42:18;;;;;;;;;;;23.50;58.40;;;;;;5097027;28;19934;-60
2023/08/23 07:44:45;;;;;;;;;;;23.50;58.50;;;;;;5097100;28;20040;-60
2023/08/23 07:47:12;;;;;;;;;;;23.50;58.50;;;;;;5096039;28;19926;-60
2023/08/23 07:49:39;;;;;;;;;;;23.40;59.10;;;;;;5099152;27;19928;-60
2023/08/23 07:52:06;;;;;;;;;;;23.50;58.70;;;;;;5096864;27;19931;-60
2023/08/23 07:54:33;;;;;;;;;;;23.40;58.70;;;;;;5098095;28;19927;-59
2023/08/23 07:57:00;;;;;;;;;;;23.40;58.60;;;;;;5097062;27;19924;-60
2023/08/23 07:59:28;;;;;;;;;;;23.40;58.60;;;;;;5098217;28;19966;-61
2023/08/23 08:01:55;;;;;;;;;;;23.40;58.60;;;;;;5097675;28;19932;-61
2023/08/23 08:04:21;;;;;;;;;;;23.40;58.60;;;;;;5114586;27;19924;-60
2023/08/23 08:06:48;;;;;;;;;;;23.40;58.60;;;;;;5098910;28;19973;-60
2023/08/23 08:09:15;;;;;;;;;;;23.40;58.70;;;;;;5093605;28;19958;-60
2023/08/23 08:11:42;;;;;;;;;;;23.40;58.70;;;;;;5094995;28;19973;-60
2023/08/23 08:14:08;;;;;;;;;;;23.40;58.60;;;;;;5096300;28;19978;-59
2023/08/23 08:16:37;;;;;;;;;;;23.40;58.60;;;;;;5116364;27;19928;-60
2023/08/23 08:19:03;;;;;;;;;;;23.40;58.60;;;;;;5098251;27;19967;-59
2023/08/23 08:21:30;;;;;;;;;;;23.40;58.60;;;;;;5096375;28;19923;-60
2023/08/23 08:23:58;;;;;;;;;;;23.40;58.70;;;;;;5100981;27;19976;-60
2023/08/23 08:26:25;;;;;;;;;;;23.40;58.70;;;;;;5127727;27;19932;-60
2023/08/23 08:28:52;;;;;;;;;;;23.40;59.30;;;;;;5116432;27;19930;-60
2023/08/23 08:31:19;;;;;;;;;;;23.40;58.70;;;;;;5096436;28;19995;-60
2023/08/23 08:33:47;;;;;;;;;;;23.40;58.60;;;;;;5114499;27;19932;-60
2023/08/23 08:36:14;;;;;;;;;;;23.40;58.50;;;;;;5097805;28;20283;-60
2023/08/23 08:38:40;;;;;;;;;;;23.40;58.50;;;;;;5125156;27;19924;-59
2023/08/23 08:41:09;;;;;;;;;;;23.40;58.30;;;;;;5119697;27;19923;-59
2023/08/23 08:43:36;;;;;;;;;;;23.40;58.30;;;;;;5099109;28;19945;-59
2023/08/23 08:46:05;;;;;;;;;;;23.30;58.20;;;;;;5101968;27;19934;-60
2023/08/23 08:48:32;;;;;;;;;;;23.40;58.20;;;;;;5093659;28;19924;-60
2023/08/23 08:51:00;;;;;;;;;;;23.40;58.20;;;;;;5097612;28;19924;-60
2023/08/23 08:53:27;;;;;;;;;;;23.40;58.20;;;;;;5114524;27;19985;-60
2023/08/23 08:55:53;;;;;;;;;;;23.40;58.10;;;;;;5115946;27;19931;-60
2023/08/23 08:58:20;;;;;;;;;;;23.40;57.90;;;;;;5097713;28;20016;-60
2023/08/23 09:00:47;;;;;;;;;;;23.30;57.60;;;;;;5095885;27;19939;-59
2023/08/23 09:03:14;;;;;;;;;;;23.30;57.60;;;;;;5119537;27;20022;-59
2023/08/23 09:05:40;;;;;;;;;;;23.40;57.70;;;;;;5116827;27;19924;-59
2023/08/23 09:08:08;;;;;;;;;;;23.40;57.70;;;;;;5097984;27;19931;-60
2023/08/23 09:10:35;;;;;;;;;;;23.40;57.70;;;;;;5098369;28;19928;-60
2023/08/23 09:13:03;;;;;;;;;;;23.40;57.60;;;;;;5095302;28;19954;-60
2023/08/23 09:15:31;;;;;;;;;;;23.40;58.10;;;;;;5120650;27;19970;-60
2023/08/23 09:17:59;;;;;;;;;;;23.40;57.40;;;;;;5112844;28;20007;-60
2023/08/23 09:20:25;;;;;;;;;;;23.40;57.20;;;;;;5101709;28;19924;-60
2023/08/23 09:22:52;;;;;;;;;;;23.30;57.10;;;;;;5120449;27;20334;-61
2023/08/23 09:25:20;;;;;;;;;;;23.40;57.30;;;;;;5100824;28;19997;-59
2023/08/23 09:27:47;;;;;;;;;;;23.40;57.50;;;;;;5094741;28;19969;-60
2023/08/23 09:30:14;;;;;;;;;;;23.40;57.70;;;;;;5096459;28;19932;-61
2023/08/23 09:32:41;;;;;;;;;;;23.40;57.60;;;;;;5099374;27;19973;-61
2023/08/23 09:35:12;;;;;;;;;;;23.40;57.60;;;;;;5101540;28;19927;-60
2023/08/23 09:37:42;;;;;;;;;;;23.40;57.50;;;;;;5127095;27;19959;-59
2023/08/23 09:40:20;;;;;;;;;;;23.40;57.60;;;;;;5125237;27;19977;-60
2023/08/23 09:42:47;;;;;;;;;;;23.40;57.60;;;;;;5096044;27;19923;-59
2023/08/23 09:45:14;;;;;;;;;;;23.40;57.40;;;;;;5104785;28;19923;-60
2023/08/23 09:47:41;;;;;;;;;;;23.40;57.30;;;;;;5112821;27;20364;-60
2023/08/23 09:50:08;;;;;;;;;;;23.40;57.40;;;;;;5111929;28;20026;-61
2023/08/23 09:52:35;;;;;;;;;;;23.40;57.60;;;;;;5102401;28;19924;-60
2023/08/23 09:55:03;;;;;;;;;;;23.40;57.60;;;;;;5122886;27;19931;-60
2023/08/23 09:57:31;;;;;;;;;;;23.40;57.50;;;;;;5096073;28;19931;-61
2023/08/23 09:59:59;;;;;;;;;;;23.50;57.50;;;;;;5121645;27;19976;-61
2023/08/23 10:02:26;;;;;;;;;;;23.40;57.40;;;;;;5102033;27;19923;-60
2023/08/23 10:04:52;;;;;;;;;;;23.40;57.30;;;;;;5101861;27;19924;-62
2023/08/23 10:07:19;;;;;;;;;;;23.40;57.30;;;;;;5102597;28;19972;-63
2023/08/23 10:09:46;;;;;;;;;;;23.50;57.30;;;;;;5094156;28;19946;-61
2023/08/23 10:12:13;;;;;;;;;;;23.50;57.10;;;;;;5118276;27;19924;-61
2023/08/23 10:14:42;;;;;;;;;;;23.50;57.00;;;;;;5099792;27;19931;-61
2023/08/23 10:17:09;;;;;;;;;;;23.50;56.80;;;;;;5103998;28;19931;-61
2023/08/23 10:19:37;;;;;;;;;;;23.50;56.80;;;;;;5117056;27;19963;-59
2023/08/23 10:22:04;;;;;;;;;;;23.50;56.60;;;;;;5098577;28;19964;-61
2023/08/23 10:24:31;;;;;;;;;;;23.50;56.60;;;;;;5121056;27;19919;-60
2023/08/23 10:27:04;;;;;;;;;;;23.50;56.60;;;;;;5095567;28;20020;-60
2023/08/23 10:29:31;;;;;;;;;;;23.50;56.60;;;;;;5098436;28;19920;-60
2023/08/23 10:31:59;;;;;;;;;;;23.60;56.70;;;;;;5097857;28;20247;-60
2023/08/23 10:34:26;;;;;;;;;;;23.60;56.50;;;;;;5098427;28;19976;-61
2023/08/23 10:36:53;;;;;;;;;;;23.60;56.30;;;;;;5095375;28;19927;-60
2023/08/23 10:39:21;;;;;;;;;;;23.60;56.20;;;;;;5098555;28;20022;-62
2023/08/23 10:41:50;;;;;;;;;;;23.60;56.20;;;;;;5103055;28;19924;-62
2023/08/23 10:44:16;;;;;;;;;;;23.60;56.20;;;;;;5097326;28;19926;-60
2023/08/23 10:46:43;;;;;;;;;;;23.60;56.60;;;;;;5094129;28;19924;-60
2023/08/23 10:49:11;;;;;;;;;;;23.70;55.90;;;;;;5110783;28;19977;-61
2023/08/23 10:51:41;;;;;;;;;;;23.60;55.90;;;;;;5116375;28;19924;-59
2023/08/23 10:54:09;;;;;;;;;;;23.70;56.00;;;;;;5093782;28;19939;-61
2023/08/23 10:56:35;;;;;;;;;;;23.70;55.90;;;;;;5093048;28;19928;-60
2023/08/23 10:59:02;;;;;;;;;;;23.70;55.80;;;;;;5098561;28;19928;-60
2023/08/23 11:01:29;;;;;;;;;;;23.70;55.80;;;;;;5094875;28;19924;-60
2023/08/23 11:03:56;;;;;;;;;;;23.70;55.80;;;;;;5127909;28;19928;-60
2023/08/23 11:06:24;;;;;;;;;;;23.70;55.80;;;;;;5092557;28;19924;-60
2023/08/23 11:08:52;;;;;;;;;;;23.70;55.80;;;;;;5117165;28;19969;-60
2023/08/23 11:11:19;;;;;;;;;;;23.80;55.90;;;;;;5100217;28;20025;-59
2023/08/23 11:13:47;;;;;;;;;;;23.80;55.90;;;;;;5097680;28;19932;-59
2023/08/23 11:16:13;;;;;;;;;;;23.80;55.80;;;;;;5096249;28;19923;-59
2023/08/23 11:18:40;;;;;;;;;;;23.80;55.80;;;;;;5095417;28;19931;-60
2023/08/23 11:21:07;;;;;;;;;;;23.80;55.80;;;;;;5099220;28;19924;-62
2023/08/23 11:23:38;;;;;;;;;;;23.80;55.80;;;;;;5112839;28;19977;-60
2023/08/23 11:26:05;;;;;;;;;;;23.90;55.90;;;;;;5093429;28;19933;-60
2023/08/23 11:28:32;;;;;;;;;;;23.80;55.90;;;;;;5092064;28;19927;-60
2023/08/23 11:30:58;;;;;;;;;;;23.90;55.80;;;;;;5092408;28;19965;-61
2023/08/23 11:33:25;;;;;;;;;;;23.90;55.70;;;;;;5118106;28;19960;-60
2023/08/23 11:35:52;;;;;;;;;;;23.90;55.60;;;;;;5094888;28;19924;-61
2023/08/23 11:38:19;;;;;;;;;;;24.00;55.60;;;;;;5094492;28;19975;-59
2023/08/23 11:40:47;;;;;;;;;;;23.90;55.50;;;;;;5116239;28;19931;-59
2023/08/23 11:43:14;;;;;;;;;;;23.90;55.50;;;;;;5093986;28;19930;-59
2023/08/23 11:45:41;;;;;;;;;;;24.00;55.60;;;;;;5099101;27;19928;-60
2023/08/23 11:48:08;;;;;;;;;;;24.00;55.60;;;;;;5097769;28;19980;-59
2023/08/23 11:50:34;;;;;;;;;;;24.00;55.60;;;;;;5128225;27;19924;-60
2023/08/23 11:53:02;;;;;;;;;;;24.00;55.50;;;;;;5115472;27;19930;-61
2023/08/23 11:55:29;;;;;;;;;;;24.00;55.50;;;;;;5100142;28;19932;-61
2023/08/23 11:57:58;;;;;;;;;;;24.10;55.50;;;;;;5116159;27;19936;-61
2023/08/23 12:00:24;;;;;;;;;;;24.00;55.40;;;;;;5100437;28;19931;-64
2023/08/23 12:02:51;;;;;;;;;;;24.00;55.40;;;;;;5100254;27;20659;-65
2023/08/23 12:05:19;;;;;;;;;;;24.10;55.50;;;;;;5101374;28;19981;-61
2023/08/23 12:07:46;;;;;;;;;;;24.10;55.50;;;;;;5104039;27;19939;-60
2023/08/23 12:10:12;;;;;;;;;;;24.10;55.50;;;;;;5115144;27;20389;-60
2023/08/23 12:12:39;;;;;;;;;;;24.10;55.50;;;;;;5101737;27;19931;-60
2023/08/23 12:15:08;;;;;;;;;;;24.10;55.40;;;;;;5126001;27;19934;-60
2023/08/23 12:17:35;;;;;;;;;;;24.10;55.40;;;;;;5109477;27;20015;-59
2023/08/23 12:20:04;;;;;;;;;;;24.10;55.40;;;;;;5127332;27;19923;-60
2023/08/23 12:22:31;;;;;;;;;;;24.10;55.40;;;;;;5097372;28;19924;-60
2023/08/23 12:24:58;;;;;;;;;;;24.10;55.20;;;;;;5127167;27;19948;-60
2023/08/23 12:27:25;;;;;;;;;;;24.20;55.20;;;;;;5107569;27;19924;-60
2023/08/23 12:29:52;;;;;;;;;;;24.20;55.10;;;;;;5126759;27;20384;-60
2023/08/23 12:32:20;;;;;;;;;;;24.10;54.90;;;;;;5096373;28;20289;-60
2023/08/23 12:34:47;;;;;;;;;;;24.10;54.70;;;;;;5131048;27;20016;-60
2023/08/23 12:37:14;;;;;;;;;;;24.10;54.50;;;;;;5106522;27;19923;-60
2023/08/23 12:39:41;;;;;;;;;;;24.10;54.60;;;;;;5107901;27;19928;-60
2023/08/23 12:42:07;;;;;;;;;;;24.10;54.80;;;;;;5098028;28;19928;-59
2023/08/23 12:44:35;;;;;;;;;;;24.10;54.80;;;;;;5095883;27;19953;-59
2023/08/23 12:47:02;;;;;;;;;;;24.10;54.90;;;;;;5096771;28;19928;-60
2023/08/23 12:49:30;;;;;;;;;;;24.10;54.60;;;;;;5093655;28;19924;-60
2023/08/23 12:51:57;;;;;;;;;;;24.20;54.50;;;;;;5115115;27;19930;-60
2023/08/23 12:54:24;;;;;;;;;;;24.20;54.50;;;;;;5095612;28;20019;-59
2023/08/23 12:56:50;;;;;;;;;;;24.20;54.50;;;;;;5100087;27;19934;-60
2023/08/23 12:59:17;;;;;;;;;;;24.20;54.50;;;;;;5096017;28;19924;-61
2023/08/23 13:01:44;;;;;;;;;;;24.20;54.40;;;;;;5098221;28;20033;-60
2023/08/23 13:04:11;;;;;;;;;;;24.20;54.50;;;;;;5094775;28;19924;-60
2023/08/23 13:06:39;;;;;;;;;;;24.20;54.60;;;;;;5098584;28;20394;-61
2023/08/23 13:09:06;;;;;;;;;;;24.20;54.60;;;;;;5100327;27;19923;-60
2023/08/23 13:11:33;;;;;;;;;;;24.20;54.90;;;;;;5113734;27;20329;-61
2023/08/23 13:14:00;;;;;;;;;;;24.20;55.00;;;;;;5093354;28;20001;-60
2023/08/23 13:16:27;;;;;;;;;;;24.20;54.90;;;;;;5094229;28;19940;-60
2023/08/23 13:18:53;;;;;;;;;;;24.20;55.00;;;;;;5095072;28;19938;-61
2023/08/23 13:21:20;;;;;;;;;;;24.30;55.00;;;;;;5113870;27;19928;-61
2023/08/23 13:23:48;;;;;;;;;;;24.20;54.80;;;;;;5115039;27;19931;-61
2023/08/23 13:26:15;;;;;;;;;;;24.20;54.70;;;;;;5111184;28;20036;-60
2023/08/23 13:28:42;;;;;;;;;;;24.30;54.70;;;;;;5097594;28;19928;-60
2023/08/23 13:31:08;;;;;;;;;;;24.20;54.70;;;;;;5097063;27;19972;-61
2023/08/23 13:33:36;;;;;;;;;;;24.30;54.80;;;;;;5097512;27;19928;-60
2023/08/23 13:36:03;;;;;;;;;;;24.30;54.80;;;;;;5113593;27;20277;-60
2023/08/23 13:38:30;;;;;;;;;;;24.30;54.70;;;;;;5097553;28;19975;-60
2023/08/23 13:40:58;;;;;;;;;;;24.30;54.60;;;;;;5096084;28;19930;-60
2023/08/23 13:43:27;;;;;;;;;;;24.30;54.50;;;;;;5098081;28;19923;-60
2023/08/23 13:45:53;;;;;;;;;;;24.30;54.40;;;;;;5098738;28;19970;-60
2023/08/23 13:48:20;;;;;;;;;;;24.30;54.50;;;;;;5097209;28;19928;-61
2023/08/23 13:50:47;;;;;;;;;;;24.30;54.20;;;;;;5095977;28;20031;-60
2023/08/23 13:53:14;;;;;;;;;;;24.30;54.20;;;;;;5096623;27;19963;-60
2023/08/23 13:55:40;;;;;;;;;;;24.30;54.40;;;;;;5114015;27;19938;-60
2023/08/23 13:58:09;;;;;;;;;;;24.30;54.50;;;;;;5094940;28;19928;-61
2023/08/23 14:00:35;;;;;;;;;;;24.30;54.50;;;;;;5095087;27;19924;-60
2023/08/23 14:03:02;;;;;;;;;;;24.30;54.50;;;;;;5120270;27;19923;-61
2023/08/23 14:05:29;;;;;;;;;;;24.30;54.40;;;;;;5102414;27;19949;-60
2023/08/23 14:07:56;;;;;;;;;;;24.40;54.40;;;;;;5095816;27;19931;-60
2023/08/23 14:10:22;;;;;;;;;;;24.30;54.20;;;;;;5094717;28;19927;-60
2023/08/23 14:12:49;;;;;;;;;;;24.30;54.10;;;;;;5097943;27;19977;-60
2023/08/23 14:15:17;;;;;;;;;;;24.40;54.10;;;;;;5120049;27;19931;-61